Flag for USA

Past Weather in 27°56'57"N, 82°27'22"W, USA — Yesterday and Last 2 Weeks

Currently: 77 °F. Passing clouds. (Weather station: Tampa, Peter O Knight Airport, USA). See more current weather

Past Weather in 27°56'57"N, 82°27'22"W — Graph

°F

27°56'57"N, 82°27'22"W Temperature Yesterday

Maximum temperature yesterday: 93 °F (at 4:55 pm)
Minimum temperature yesterday: 75 °F (at 4:15 am)
Average temperature yesterday: 83 °F

High & Low Weather Summary for the Past Weeks

 TemperatureHumidityPressure
High97 °F (Jun 9, 2:15 pm)94% (Jun 12, 1:35 am)30.13 "Hg (Jun 12, 1:35 am)
Low73 °F (Jun 14, 1:15 am)36% (Jun 7, 4:15 pm)29.79 "Hg (Jun 10, 5:35 pm)
Average83 °F67%29.95 "Hg
* Reported Jun 7 1:15 am — Jun 22 1:35 am, 27°56'57"N, 82°27'22"W. Weather by CustomWeather, © 2024

Note: Actual official high and low records may vary slightly from our data, if they occured in-between our weather recording intervals... More about our weather records

27°56'57"N, 82°27'22"W Weather History for the Previous 24 Hours

Scroll right to see more
 ConditionsComfort  
Time TempWeatherWind HumidityBarometerVisibility
1:35 am
Sat, Jun 22
77 °FClear.6 mph83%30.09 "Hg5 mi
1:15 am77 °FClear.5 mph83%30.08 "Hg7 mi
12:55 am77 °FClear.5 mph83%30.07 "Hg7 mi
12:35 am79 °FClear.No wind79%30.08 "Hg7 mi
12:15 am79 °FClear.No wind79%30.08 "Hg7 mi
11:55 pm
Fri, Jun 21
79 °FClear.No wind79%30.07 "Hg5 mi
11:35 pm79 °FPassing clouds.No wind79%30.08 "Hg7 mi
11:15 pm79 °FPartly cloudy.No wind84%30.07 "Hg7 mi
10:55 pm79 °FPassing clouds.No wind84%30.07 "Hg7 mi
10:35 pm79 °FLight rain. Mostly cloudy.No wind79%30.07 "Hg10 mi
9:55 pm81 °FOvercast.3 mph74%30.07 "Hg7 mi
9:35 pm81 °FMostly cloudy.No wind74%30.06 "Hg7 mi
9:15 pm81 °FOvercast.No wind74%30.05 "Hg7 mi
8:35 pm81 °FOvercast.5 mph79%30.04 "Hg7 mi
7:55 pm86 °FRain. More clouds than sun.7 mph66%30.03 "Hg7 mi
7:35 pm86 °FRain. Overcast.8 mph66%30.02 "Hg7 mi
7:15 pm88 °FLight rain. Overcast.10 mph62%30.02 "Hg10 mi
6:55 pm88 °FRain. Scattered clouds.6 mph59%30.01 "Hg7 mi
6:35 pm90 °FRain. Scattered clouds.5 mph55%30.01 "Hg7 mi
6:15 pm90 °FRain. Broken clouds.N/A52%30.01 "Hg7 mi
5:15 pm91 °FRain. More clouds than sun.3 mph49%30.00 "Hg7 mi
4:55 pm93 °FRain. More clouds than sun.6 mph47%30.01 "Hg7 mi
4:15 pm91 °FBroken clouds.5 mph49%30.03 "Hg5 mi
3:55 pm91 °FScattered clouds.3 mph49%30.04 "Hg7 mi
3:35 pm91 °FSunny.6 mph49%30.04 "Hg10 mi
3:15 pm91 °FRain. Sunny.5 mph49%30.04 "Hg7 mi
2:55 pm90 °FRain. Scattered clouds.5 mph55%30.05 "Hg10 mi
2:35 pm88 °FRain. More clouds than sun.6 mph55%30.06 "Hg10 mi
2:15 pm88 °FRain. More clouds than sun.5 mph59%30.07 "Hg10 mi
1:55 pm88 °FRain. More clouds than sun.7 mph59%30.07 "Hg10 mi
1:35 pm88 °FMore clouds than sun.7 mph59%30.08 "Hg10 mi
1:15 pm90 °FMore clouds than sun.No wind52%30.08 "Hg7 mi
12:55 pm90 °FRain. Broken clouds.3 mph55%30.08 "Hg10 mi
12:35 pm90 °FRain. Scattered clouds.6 mph55%30.08 "Hg10 mi
12:15 pm88 °FRain. Scattered clouds.5 mph59%30.09 "Hg10 mi
11:55 am88 °FHeavy rain. Broken clouds.7 mph59%30.09 "Hg10 mi
11:35 am86 °FRain. Broken clouds.9 mph62%30.09 "Hg10 mi
11:15 am88 °FRain. Broken clouds.8 mph59%30.10 "Hg10 mi
10:55 am86 °FRain. Partly sunny.6 mph62%30.09 "Hg10 mi
10:35 am84 °FRain. Partly sunny.7 mph66%30.10 "Hg10 mi
10:15 am82 °FRain. Overcast.6 mph70%30.10 "Hg10 mi
9:55 am82 °FRain. Mostly cloudy.5 mph70%30.09 "Hg7 mi
9:35 am82 °FRain. Partly sunny.9 mph70%30.08 "Hg7 mi
9:15 am81 °FRain. Scattered clouds.7 mph70%30.09 "Hg7 mi
8:55 am81 °FRain. Sunny.6 mph70%30.09 "Hg7 mi
8:35 am79 °FScattered clouds.10 mph74%30.09 "Hg7 mi
8:15 am79 °FRain. Scattered clouds.10 mph74%30.08 "Hg5 mi
7:55 am77 °FRain. Sunny.7 mph79%30.08 "Hg5 mi
7:35 am77 °FSunny.7 mph79%30.08 "Hg5 mi
7:15 am77 °FSunny.3 mph79%30.08 "Hg5 mi
6:55 am75 °FSunny.No wind78%30.07 "Hg5 mi
6:35 am75 °FSunny.5 mph78%30.08 "Hg5 mi
5:55 am75 °FClear.3 mph78%30.08 "Hg7 mi
5:15 am77 °FClear.5 mph74%30.08 "Hg7 mi
4:55 am77 °FClear.7 mph74%30.08 "Hg7 mi
4:15 am75 °FPassing clouds.3 mph78%30.09 "Hg7 mi
3:55 am77 °FClear.6 mph74%30.09 "Hg7 mi
3:35 am77 °FClear.9 mph74%30.09 "Hg7 mi
3:15 am77 °FClear.5 mph74%30.09 "Hg7 mi
2:55 am77 °FClear.6 mph74%30.10 "Hg7 mi
2:15 am77 °FClear.6 mph74%30.11 "Hg7 mi
Weather by CustomWeather, © 2024

See weather overview